createdAt,value
2022-10-11T03:33:06.411Z,8.97
2022-10-11T03:38:12.943Z,8.97
2022-10-11T03:43:14.796Z,8.88
2022-10-11T03:48:16.525Z,8.88
2022-10-11T03:53:18.192Z,9.02
2022-10-11T03:58:20.415Z,9.02
2022-10-11T04:03:22.089Z,8.86
2022-10-11T04:08:24.041Z,8.86
2022-10-11T04:13:25.839Z,8.74
2022-10-11T04:18:27.454Z,8.74
2022-10-11T04:23:29.249Z,8.65
2022-10-11T04:28:31.147Z,8.65
2022-10-11T04:33:32.959Z,8.75
2022-10-11T04:38:34.611Z,8.75
2022-10-11T04:43:36.660Z,9.19
2022-10-11T04:48:38.307Z,8.92
2022-10-11T04:53:39.954Z,8.92
2022-10-11T04:58:41.963Z,9.09
2022-10-11T05:03:43.702Z,9.09
2022-10-11T05:08:45.436Z,9
2022-10-11T05:13:47.131Z,9
2022-10-11T05:18:48.867Z,8.9
2022-10-11T05:23:51.447Z,8.9
2022-10-11T05:28:53.184Z,9.04
2022-10-11T05:33:55.196Z,9.04
2022-10-11T05:38:56.748Z,9.14
2022-10-11T05:43:58.389Z,9.14
2022-10-11T05:49:00.082Z,9.34
2022-10-11T05:54:01.747Z,9.34
2022-10-11T05:59:03.463Z,9.48
2022-10-11T06:04:05.211Z,9.48
2022-10-11T06:09:06.866Z,9.65
2022-10-11T06:14:08.834Z,9.77
2022-10-11T06:19:10.688Z,9.77
2022-10-11T06:24:12.339Z,9.48
2022-10-11T06:29:13.996Z,9.48
2022-10-11T06:34:15.713Z,9.69
2022-10-11T06:39:17.482Z,9.69
2022-10-11T06:44:19.078Z,10.11
2022-10-11T06:49:23.427Z,10.11
2022-10-11T06:54:25.800Z,10.95
2022-10-11T06:59:27.457Z,10.95
2022-10-11T07:04:29.330Z,11.84
2022-10-11T07:09:33.031Z,11.84
2022-10-11T07:14:34.649Z,12.04
2022-10-11T07:19:36.264Z,12.04
2022-10-11T07:24:37.914Z,12.03
2022-10-11T07:29:39.901Z,12.15
2022-10-11T07:34:41.570Z,12.15
2022-10-11T07:39:43.284Z,12.59
2022-10-11T07:44:45.174Z,12.59
2022-10-11T07:49:46.813Z,13.56
2022-10-11T07:54:48.840Z,13.56
2022-10-11T07:59:50.584Z,14.77
2022-10-11T08:04:52.352Z,14.77
2022-10-11T08:09:54.171Z,15.06
2022-10-11T08:14:55.862Z,15.06
2022-10-11T08:19:57.821Z,15.44
2022-10-11T08:24:59.516Z,15.44
2022-10-11T08:30:01.211Z,15.48
2022-10-11T08:35:03.044Z,15.48
2022-10-11T08:40:05.464Z,15.82
2022-10-11T08:45:11.312Z,15.82
2022-10-11T08:50:16.169Z,16.65
2022-10-11T08:55:20.728Z,17.16
2022-10-11T09:00:23.279Z,17.16
2022-10-11T09:05:30.181Z,16.55
2022-10-11T09:10:39.347Z,16.55
2022-10-11T09:15:44.896Z,16.06
2022-10-11T09:20:51.142Z,16.06
2022-10-11T09:25:55.033Z,15.55
2022-10-11T09:30:57.303Z,15.55
2022-10-11T09:35:59.273Z,16.13
2022-10-11T09:41:06.755Z,16.13
2022-10-11T09:46:16.698Z,16.5
2022-10-11T09:51:20.301Z,16.5
2022-10-11T09:56:22.934Z,16.82
2022-10-11T10:01:24.907Z,17.06
2022-10-11T10:06:26.867Z,17.06
2022-10-11T10:16:35.324Z,16.9
2022-10-11T10:36:58.841Z,17.97
2022-10-11T10:42:02.518Z,17.78
2022-10-11T10:47:07.108Z,17.78
2022-10-11T10:57:25.095Z,17.58
2022-10-11T11:02:47.148Z,17.1
2022-10-11T11:07:42.319Z,17.24
2022-10-11T11:12:45.707Z,17.24
2022-10-11T11:17:54.310Z,16.71
2022-10-11T11:22:59.665Z,16.71
2022-10-11T11:28:07.358Z,16.47
2022-10-11T11:38:19.451Z,16.9
2022-10-11T11:43:23.061Z,16.9
2022-10-11T11:48:25.514Z,16.7
2022-10-11T11:53:35.091Z,16.7
2022-10-11T11:58:41.779Z,16.64
2022-10-11T12:03:45.314Z,16.69
2022-10-11T12:08:47.827Z,16.69
2022-10-11T12:13:50.351Z,17.04
2022-10-11T12:23:59.355Z,17.53
2022-10-11T12:29:03.632Z,17.53
2022-10-11T12:44:26.782Z,19.17
2022-10-11T12:49:34.854Z,19.17
2022-10-11T12:59:45.680Z,19.76
2022-10-11T13:04:47.370Z,18.44
2022-10-11T13:09:51.617Z,18.44
2022-10-11T13:14:58.122Z,17.21
2022-10-11T13:20:00.730Z,16.67
2022-10-11T13:25:04.265Z,16.67
2022-10-11T13:30:08.088Z,16.38
2022-10-11T13:35:14.983Z,16.38
2022-10-11T13:40:22.478Z,16.19
2022-10-11T13:45:25.386Z,16.19
2022-10-11T13:50:28.147Z,16.31
2022-10-11T13:55:32.200Z,16.31
2022-10-11T14:00:35.499Z,16.48
2022-10-11T14:05:38.667Z,16.48
2022-10-11T14:10:44.131Z,16.29
2022-10-11T14:15:45.836Z,16.29
2022-10-11T14:20:47.572Z,16.19
2022-10-11T14:25:50.645Z,17.78
2022-10-11T14:30:52.370Z,17.78
2022-10-11T14:35:54.088Z,20.07
2022-10-11T14:40:55.754Z,20.07
2022-10-11T14:45:57.445Z,20.24
2022-10-11T14:51:00.028Z,20.24
2022-10-11T14:56:01.705Z,20.23
2022-10-11T15:01:04.395Z,20.23
2022-10-11T15:06:09.858Z,19.5
2022-10-11T15:11:12.335Z,19.5
2022-10-11T15:16:14.956Z,18.14
2022-10-11T15:21:17.901Z,18.14
2022-10-11T15:26:21.892Z,17.81
2022-10-11T15:31:23.668Z,17.81
2022-10-11T15:36:25.361Z,17.29
2022-10-11T15:41:27.051Z,16.38
2022-10-11T15:46:28.722Z,16.38
2022-10-11T15:51:30.360Z,15.37
2022-10-11T15:56:33.849Z,15.37
2022-10-11T16:01:35.675Z,15.26
2022-10-11T16:06:37.698Z,15.26
2022-10-11T16:11:39.397Z,14.78
2022-10-11T16:16:41.055Z,14.78
2022-10-11T16:21:42.676Z,14.01
2022-10-11T16:26:44.291Z,14.01
2022-10-11T16:31:45.878Z,13.47
2022-10-11T16:36:47.377Z,13.47
2022-10-11T16:41:49.174Z,13.34
2022-10-11T16:46:51.075Z,13.34
2022-10-11T16:51:54.036Z,13.38
2022-10-11T16:56:56.334Z,13.19
2022-10-11T17:01:57.989Z,13.19
2022-10-11T17:06:59.965Z,12.81
2022-10-11T17:12:01.581Z,12.81
2022-10-11T17:17:03.924Z,12.41
2022-10-11T17:22:05.591Z,12.41
2022-10-11T17:27:07.413Z,12.21
2022-10-11T17:32:09.541Z,12.21
2022-10-11T17:37:11.401Z,11.92
2022-10-11T17:42:13.273Z,11.92
2022-10-11T17:47:15.824Z,11.82
2022-10-11T17:52:19.146Z,11.82
2022-10-11T17:57:21.254Z,11.56
2022-10-11T18:02:23.485Z,11.56
2022-10-11T18:07:26.860Z,11.67
2022-10-11T18:12:29.082Z,11.55
2022-10-11T18:17:30.993Z,11.55
2022-10-11T18:22:33.718Z,11.37
2022-10-11T18:27:35.727Z,11.37
2022-10-11T18:32:38.029Z,11.13
2022-10-11T18:37:41.409Z,11.13
2022-10-11T18:42:43.381Z,11.02
2022-10-11T18:47:45.188Z,11.02
2022-10-11T18:52:48.237Z,10.86
2022-10-11T18:57:51.029Z,10.86
2022-10-11T19:02:53.637Z,10.91
2022-10-11T19:07:55.352Z,10.91
2022-10-11T19:12:57.387Z,10.56
2022-10-11T19:18:00.016Z,10.56
2022-10-11T19:23:03.679Z,10.19
2022-10-11T19:28:05.573Z,10.23
2022-10-11T19:33:07.846Z,10.23
2022-10-11T19:38:10.108Z,10.03
2022-10-11T19:43:13.202Z,10.03
2022-10-11T19:48:16.188Z,9.85
2022-10-11T19:53:18.083Z,9.85
2022-10-11T19:58:20.212Z,9.8
2022-10-11T20:03:22.852Z,9.8
2022-10-11T20:08:25.051Z,9.98
2022-10-11T20:13:31.137Z,9.98
2022-10-11T20:18:37.073Z,9.94
2022-10-11T20:28:43.089Z,10.26
2022-10-11T20:33:45.071Z,10.26
2022-10-11T20:38:47.791Z,9.95
2022-10-11T20:43:51.163Z,10.05
2022-10-11T20:48:56.515Z,10.05
2022-10-11T20:54:00.184Z,10.05
2022-10-11T20:59:02.354Z,10.05
2022-10-11T21:04:04.781Z,10.05
2022-10-11T21:09:06.480Z,10.05
2022-10-11T21:14:13.737Z,10.05
2022-10-11T21:19:15.455Z,10.05
2022-10-11T21:24:17.486Z,10.05
2022-10-11T21:29:19.115Z,10.05
2022-10-11T21:34:21.060Z,10.05
2022-10-11T21:39:22.788Z,10.05
